createdAt,value
2022-12-23T00:00:39.117Z,113.65
2022-12-23T00:03:06.163Z,120.35
2022-12-23T00:05:38.079Z,121.60
2022-12-23T00:08:06.260Z,116.15
2022-12-23T00:10:33.335Z,96.15
2022-12-23T00:13:18.867Z,96.82
2022-12-23T00:15:45.716Z,78.03
2022-12-23T00:18:12.608Z,95.85
2022-12-23T00:20:39.530Z,87.07
2022-12-23T00:23:06.789Z,61.75
2022-12-23T00:25:41.179Z,83.12
2022-12-23T00:28:11.892Z,81.65
2022-12-23T00:30:52.195Z,77.35
2022-12-23T00:33:22.714Z,79.30
2022-12-23T00:35:50.582Z,83.35
2022-12-23T00:38:41.924Z,76.03
2022-12-23T00:41:37.761Z,66.57
2022-12-23T00:44:05.408Z,71.95
2022-12-23T00:46:33.052Z,74.93
2022-12-23T00:49:18.849Z,67.07
2022-12-23T00:51:45.904Z,63.33
2022-12-23T00:54:12.835Z,67.68
2022-12-23T00:56:39.855Z,63.15
2022-12-23T00:59:07.094Z,92.45
2022-12-23T01:01:52.495Z,75.40
2022-12-23T01:04:38.815Z,71.80
2022-12-23T01:07:06.659Z,221.70
2022-12-23T01:09:34.668Z,62.45
2022-12-23T01:12:02.205Z,73.43
2022-12-23T01:14:29.376Z,90.75
2022-12-23T01:16:56.314Z,61.70
2022-12-23T01:19:23.474Z,79.15
2022-12-23T01:21:50.417Z,51.95
2022-12-23T01:24:17.335Z,64.93
2022-12-23T01:26:44.207Z,73.90
2022-12-23T01:29:12.077Z,60.58
2022-12-23T01:31:39.066Z,94.53
2022-12-23T01:34:06.058Z,119.53
2022-12-23T01:36:32.990Z,170.62
2022-12-23T01:38:59.895Z,94.57
2022-12-23T01:41:48.967Z,150.60
2022-12-23T01:45:13.097Z,244.98
2022-12-23T01:48:03.658Z,65.57
2022-12-23T01:50:38.395Z,61.53
2022-12-23T01:53:30.448Z,59.83
2022-12-23T01:56:07.949Z,59.13
2022-12-23T01:58:37.723Z,65.80
2022-12-23T02:01:24.208Z,61.00
2022-12-23T02:03:54.816Z,53.20
2022-12-23T02:06:47.387Z,59.97
2022-12-23T02:09:19.897Z,86.47
2022-12-23T02:12:21.662Z,138.23
2022-12-23T02:15:16.052Z,113.00
2022-12-23T02:18:21.335Z,50.75
2022-12-23T02:21:13.014Z,55.20
2022-12-23T02:24:17.386Z,59.65
2022-12-23T02:26:59.483Z,49.47
2022-12-23T02:29:51.120Z,49.38
2022-12-23T02:32:21.144Z,55.03
2022-12-23T02:34:56.778Z,128.82
2022-12-23T02:37:34.848Z,46.05
2022-12-23T02:40:01.708Z,54.97
2022-12-23T02:42:37.028Z,59.67
2022-12-23T02:45:12.763Z,46.75
2022-12-23T02:47:55.837Z,81.70
2022-12-23T02:50:30.066Z,70.55
2022-12-23T02:53:04.169Z,48.25
2022-12-23T02:55:36.086Z,90.55
2022-12-23T02:58:08.579Z,65.00
2022-12-23T03:00:38.632Z,58.22
2022-12-23T03:03:05.813Z,53.67
2022-12-23T03:05:43.009Z,42.53
2022-12-23T03:08:34.855Z,41.50
2022-12-23T03:11:17.497Z,40.53
2022-12-23T03:14:15.817Z,51.97
2022-12-23T03:17:14.064Z,59.20
2022-12-23T03:19:54.045Z,62.45
2022-12-23T03:22:37.191Z,60.70
2022-12-23T03:25:24.591Z,48.80
2022-12-23T03:28:23.001Z,55.30
2022-12-23T03:30:55.204Z,38.28
2022-12-23T03:33:27.961Z,44.97
2022-12-23T03:36:03.625Z,44.88
2022-12-23T03:38:33.791Z,59.63
2022-12-23T03:41:08.085Z,63.67
2022-12-23T03:43:51.413Z,187.55
2022-12-23T03:46:22.566Z,128.25
2022-12-23T03:48:54.540Z,100.82
2022-12-23T03:51:26.427Z,227.65
2022-12-23T03:54:01.927Z,105.40
2022-12-23T03:56:33.357Z,89.68
2022-12-23T03:59:06.306Z,91.82
2022-12-23T04:02:01.309Z,144.87
2022-12-23T04:04:39.830Z,120.28
2022-12-23T04:07:22.256Z,110.25
2022-12-23T04:09:51.530Z,140.75
2022-12-23T04:12:19.296Z,44.20
2022-12-23T04:14:51.345Z,61.15
2022-12-23T04:17:20.794Z,67.62
2022-12-23T04:19:53.603Z,74.10
2022-12-23T04:22:20.721Z,84.90
2022-12-23T04:24:47.688Z,64.28
2022-12-23T04:27:16.086Z,172.50
2022-12-23T04:29:44.228Z,94.97
2022-12-23T04:32:11.401Z,131.60
2022-12-23T04:34:38.357Z,74.22
2022-12-23T04:37:05.245Z,160.15
2022-12-23T04:39:32.145Z,169.27
2022-12-23T04:41:59.076Z,106.50
2022-12-23T04:44:25.969Z,130.77
2022-12-23T04:46:53.083Z,82.75
2022-12-23T04:49:20.078Z,119.28
2022-12-23T04:51:47.098Z,75.43
2022-12-23T04:54:14.135Z,39.28
2022-12-23T04:56:41.102Z,27.87
2022-12-23T04:59:07.940Z,56.72
2022-12-23T05:01:34.911Z,31.80
2022-12-23T05:04:01.997Z,28.50
2022-12-23T05:06:28.827Z,59.22
2022-12-23T05:08:55.777Z,53.45
2022-12-23T05:11:22.743Z,49.42
2022-12-23T05:13:49.597Z,38.22
2022-12-23T05:16:16.544Z,39.95
2022-12-23T05:18:43.574Z,52.78
2022-12-23T05:21:10.497Z,64.60
2022-12-23T05:23:37.697Z,58.10
2022-12-23T05:26:04.869Z,76.50
2022-12-23T05:28:32.004Z,98.03
2022-12-23T05:31:01.100Z,147.73
2022-12-23T05:33:28.680Z,64.62
2022-12-23T05:35:56.126Z,48.75
2022-12-23T05:38:23.515Z,95.90
2022-12-23T05:40:50.754Z,64.37
2022-12-23T05:43:18.526Z,113.93
2022-12-23T05:45:46.027Z,90.35
2022-12-23T05:48:13.688Z,106.97
2022-12-23T05:50:41.977Z,76.62
2022-12-23T05:53:14.018Z,153.30
2022-12-23T05:55:41.032Z,102.38
2022-12-23T05:58:08.125Z,137.43
2022-12-23T06:00:35.099Z,74.95
2022-12-23T06:03:02.256Z,143.25
2022-12-23T06:05:29.516Z,101.45
2022-12-23T06:07:56.436Z,106.50
2022-12-23T06:10:23.409Z,152.52
2022-12-23T06:12:50.389Z,159.12
2022-12-23T06:15:17.271Z,139.18
2022-12-23T06:17:44.154Z,84.55
2022-12-23T06:20:19.642Z,87.88
2022-12-23T06:22:50.252Z,113.10
2022-12-23T06:25:17.487Z,126.57
2022-12-23T06:27:44.835Z,86.70
2022-12-23T06:30:16.242Z,102.00
2022-12-23T06:32:43.142Z,128.57
2022-12-23T06:35:10.347Z,106.65
2022-12-23T06:37:37.307Z,102.22
2022-12-23T06:40:04.615Z,58.13
2022-12-23T06:42:32.597Z,124.78
2022-12-23T06:44:59.843Z,127.10
2022-12-23T06:47:27.177Z,99.22
2022-12-23T06:49:55.049Z,78.47
2022-12-23T06:52:23.259Z,78.12
2022-12-23T06:54:50.178Z,103.28
2022-12-23T06:57:17.143Z,122.65
2022-12-23T06:59:44.136Z,115.00
2022-12-23T07:02:12.037Z,101.18
2022-12-23T07:04:39.429Z,141.00
2022-12-23T07:07:06.345Z,103.47
2022-12-23T07:09:33.166Z,126.20
2022-12-23T07:12:00.004Z,98.57
2022-12-23T07:14:26.952Z,104.82
2022-12-23T07:16:54.388Z,82.60
2022-12-23T07:19:21.372Z,99.80
2022-12-23T07:21:48.282Z,68.70
2022-12-23T07:24:15.158Z,110.78
2022-12-23T07:26:42.030Z,99.43
2022-12-23T07:29:08.985Z,60.17
2022-12-23T07:31:40.609Z,55.38
2022-12-23T07:34:07.999Z,65.60
2022-12-23T07:36:34.986Z,62.97
2022-12-23T07:39:01.935Z,63.58
2022-12-23T07:41:31.180Z,67.25
2022-12-23T07:43:58.548Z,65.47
2022-12-23T07:46:25.492Z,49.20
2022-12-23T07:48:52.443Z,64.72
2022-12-23T07:51:19.433Z,63.33
2022-12-23T07:53:50.929Z,64.68
2022-12-23T07:56:18.934Z,47.53
2022-12-23T07:58:52.721Z,55.85
2022-12-23T08:01:20.780Z,59.05
2022-12-23T08:03:48.083Z,62.08
2022-12-23T08:06:16.288Z,48.72
2022-12-23T08:08:45.094Z,43.38
2022-12-23T08:11:13.259Z,46.70
2022-12-23T08:13:42.185Z,44.75
2022-12-23T08:16:10.260Z,51.03
2022-12-23T08:18:38.944Z,51.50
2022-12-23T08:21:13.344Z,44.85
2022-12-23T08:23:40.583Z,46.88
2022-12-23T08:26:16.859Z,45.03
2022-12-23T08:28:44.926Z,50.30
2022-12-23T08:31:34.128Z,43.55
2022-12-23T08:34:01.802Z,41.90
2022-12-23T08:36:31.752Z,45.17
2022-12-23T08:39:01.416Z,45.03
2022-12-23T08:41:31.611Z,42.08
2022-12-23T08:43:58.819Z,45.30
2022-12-23T08:46:26.757Z,41.05
2022-12-23T08:48:54.255Z,45.38
2022-12-23T08:51:23.456Z,41.30
2022-12-23T08:53:56.185Z,40.90
2022-12-23T08:56:29.727Z,41.72
2022-12-23T08:58:57.233Z,54.38
2022-12-23T09:01:27.293Z,59.80
2022-12-23T09:03:55.191Z,73.32
2022-12-23T09:06:29.985Z,51.60
2022-12-23T09:08:58.126Z,81.72
2022-12-23T09:11:28.465Z,58.13
2022-12-23T09:13:56.781Z,121.13
2022-12-23T09:16:23.932Z,58.72
2022-12-23T09:18:50.882Z,70.87
2022-12-23T09:21:20.661Z,51.40
2022-12-23T09:23:48.607Z,37.72
2022-12-23T09:26:26.592Z,46.72
2022-12-23T09:28:53.825Z,45.75
2022-12-23T09:31:21.865Z,45.97
2022-12-23T09:33:51.337Z,39.80
2022-12-23T09:36:18.697Z,35.28
2022-12-23T09:38:45.567Z,34.85
2022-12-23T09:41:19.755Z,31.08
2022-12-23T09:43:58.631Z,33.83
2022-12-23T09:46:29.959Z,36.05
2022-12-23T09:49:09.457Z,31.70
2022-12-23T09:51:36.409Z,31.55
2022-12-23T09:54:03.218Z,25.45
2022-12-23T09:56:48.813Z,23.17
2022-12-23T09:59:28.375Z,25.17
2022-12-23T10:01:55.238Z,24.58
2022-12-23T10:05:05.890Z,24.00
2022-12-23T10:07:35.779Z,24.20
2022-12-23T10:12:53.196Z,20.20
2022-12-23T10:15:31.446Z,22.48
2022-12-23T10:18:04.094Z,21.77
2022-12-23T10:20:41.937Z,24.73
2022-12-23T10:23:17.879Z,20.95
2022-12-23T10:25:51.273Z,21.73
2022-12-23T10:28:18.605Z,21.83
2022-12-23T10:31:23.973Z,23.10
2022-12-23T10:34:00.623Z,20.95
2022-12-23T10:36:50.170Z,21.62
2022-12-23T10:39:38.498Z,21.25
2022-12-23T10:42:29.137Z,20.65
2022-12-23T10:45:29.089Z,22.33
2022-12-23T10:48:08.624Z,20.62
2022-12-23T10:50:48.806Z,21.98
2022-12-23T10:53:29.124Z,20.55
2022-12-23T10:55:57.526Z,17.20
2022-12-23T10:58:25.769Z,22.73
2022-12-23T11:00:57.080Z,21.87
2022-12-23T11:03:34.580Z,18.75
2022-12-23T11:06:02.389Z,16.33
2022-12-23T11:08:31.594Z,17.67
2022-12-23T11:11:00.930Z,18.55
2022-12-23T11:13:40.146Z,20.17
2022-12-23T11:16:26.868Z,22.13
2022-12-23T11:19:01.655Z,16.50
2022-12-23T11:21:30.021Z,19.75
2022-12-23T11:24:10.279Z,19.25
2022-12-23T11:26:37.357Z,18.02
2022-12-23T11:29:12.071Z,17.87
2022-12-23T11:31:39.786Z,17.60
2022-12-23T11:34:14.868Z,18.55
2022-12-23T11:36:42.136Z,17.77
2022-12-23T11:39:24.543Z,16.48
2022-12-23T11:41:55.413Z,18.40
2022-12-23T11:44:31.109Z,15.80
2022-12-23T11:46:58.736Z,18.23
2022-12-23T11:49:33.965Z,14.57
2022-12-23T11:52:02.715Z,16.62
2022-12-23T11:54:30.370Z,14.98
2022-12-23T11:56:59.355Z,17.70
2022-12-23T11:59:35.302Z,16.40
2022-12-23T12:02:26.696Z,15.43
2022-12-23T12:05:02.548Z,15.23
2022-12-23T12:07:31.076Z,18.67
2022-12-23T12:10:00.453Z,18.35
2022-12-23T12:12:29.435Z,14.40
2022-12-23T12:14:59.396Z,12.90
2022-12-23T12:17:45.414Z,17.55
2022-12-23T12:20:14.716Z,17.05
2022-12-23T12:22:56.702Z,16.10
2022-12-23T12:25:41.435Z,15.48
2022-12-23T12:28:15.248Z,12.73
2022-12-23T12:30:49.435Z,13.18
2022-12-23T12:33:22.417Z,15.98
2022-12-23T12:36:05.110Z,12.32
2022-12-23T12:38:33.687Z,13.30
2022-12-23T12:41:19.096Z,12.30
2022-12-23T12:43:55.928Z,13.27
2022-12-23T12:46:31.820Z,13.25
2022-12-23T12:49:24.866Z,14.27
2022-12-23T12:52:03.025Z,17.70
2022-12-23T12:54:40.038Z,15.65
2022-12-23T12:57:14.819Z,11.40
2022-12-23T12:59:42.985Z,11.65
2022-12-23T13:02:50.391Z,12.00
2022-12-23T13:05:38.465Z,16.95
2022-12-23T13:08:28.615Z,15.75
2022-12-23T13:11:24.937Z,9.98
2022-12-23T13:16:46.399Z,8.82
2022-12-23T13:19:30.808Z,12.70
2022-12-23T13:22:06.847Z,11.30
2022-12-23T13:25:05.767Z,12.80
2022-12-23T13:27:44.493Z,11.95
2022-12-23T13:30:20.474Z,13.82
2022-12-23T13:33:20.512Z,11.90
2022-12-23T13:36:08.127Z,13.77
2022-12-23T13:38:57.315Z,11.77
2022-12-23T13:41:39.422Z,13.82
2022-12-23T13:44:10.023Z,23.30
2022-12-23T13:47:21.812Z,19.37
2022-12-23T13:50:24.020Z,15.23
2022-12-23T13:53:06.643Z,16.48
2022-12-23T13:55:54.841Z,15.70
2022-12-23T13:58:27.314Z,15.80
2022-12-23T14:01:09.377Z,17.48
2022-12-23T14:03:40.415Z,17.33
2022-12-23T14:06:25.504Z,16.48
2022-12-23T14:08:55.324Z,17.37
2022-12-23T14:11:28.058Z,19.70
2022-12-23T14:13:59.456Z,19.50
2022-12-23T14:16:47.723Z,16.10
2022-12-23T14:19:42.935Z,17.20
2022-12-23T14:22:34.636Z,18.30
2022-12-23T14:25:33.531Z,16.15
2022-12-23T14:28:26.415Z,20.00
2022-12-23T14:30:53.523Z,18.70
2022-12-23T14:33:23.329Z,17.10
2022-12-23T14:38:31.548Z,15.52
2022-12-23T14:41:25.454Z,17.40
2022-12-23T14:43:56.282Z,20.25
2022-12-23T14:46:35.285Z,16.12
2022-12-23T14:49:36.790Z,14.80
2022-12-23T14:51:51.197Z,14.85
2022-12-23T14:54:37.668Z,16.90
2022-12-23T14:57:17.798Z,16.45
2022-12-23T14:59:51.670Z,17.73
2022-12-23T15:02:39.450Z,17.12
2022-12-23T15:05:07.873Z,20.80
2022-12-23T15:07:44.516Z,21.20
2022-12-23T15:10:18.922Z,16.52
2022-12-23T15:12:56.616Z,14.27
2022-12-23T15:15:27.031Z,17.02
2022-12-23T15:18:05.207Z,18.17
2022-12-23T15:20:35.440Z,17.20
2022-12-23T15:23:08.609Z,17.23
2022-12-23T15:25:40.894Z,30.02
2022-12-23T15:28:18.351Z,36.95
2022-12-23T15:30:50.069Z,29.20
2022-12-23T15:34:00.646Z,20.85
2022-12-23T15:36:10.699Z,20.27
2022-12-23T15:38:39.332Z,20.20
2022-12-23T15:41:15.156Z,20.75
2022-12-23T15:43:43.178Z,22.45
2022-12-23T15:46:16.734Z,29.02
2022-12-23T15:48:43.848Z,28.67
2022-12-23T15:51:49.475Z,31.85
2022-12-23T15:54:08.908Z,114.68
2022-12-23T15:56:40.231Z,101.07
2022-12-23T15:59:24.128Z,67.12
2022-12-23T16:01:51.261Z,59.65
2022-12-23T16:04:22.436Z,132.30
2022-12-23T16:06:50.790Z,76.72
2022-12-23T16:09:19.439Z,96.03
2022-12-23T16:11:56.606Z,116.97
2022-12-23T16:14:40.369Z,81.20
2022-12-23T16:17:10.209Z,48.65
2022-12-23T16:22:25.598Z,32.65
2022-12-23T16:25:17.238Z,24.12
2022-12-23T16:27:48.816Z,22.33
2022-12-23T16:30:21.816Z,33.17
2022-12-23T16:32:54.618Z,26.87
2022-12-23T16:35:30.455Z,25.42
2022-12-23T16:38:26.701Z,49.42
2022-12-23T16:40:57.505Z,56.03
2022-12-23T16:43:25.682Z,40.42
2022-12-23T16:45:57.132Z,40.35
2022-12-23T16:48:29.838Z,40.17
2022-12-23T16:50:57.972Z,62.92
2022-12-23T16:53:24.857Z,70.85
2022-12-23T16:55:56.785Z,74.15
2022-12-23T16:58:26.987Z,81.78
2022-12-23T17:00:54.050Z,78.22
2022-12-23T17:03:21.323Z,72.60
2022-12-23T17:05:48.925Z,67.72
2022-12-23T17:08:16.000Z,76.53
2022-12-23T17:10:47.227Z,57.17
2022-12-23T17:13:18.076Z,60.88
2022-12-23T17:15:45.665Z,51.10
2022-12-23T17:18:14.593Z,42.53
2022-12-23T17:20:43.436Z,48.37
2022-12-23T17:23:29.481Z,48.72
2022-12-23T17:25:56.481Z,50.45
2022-12-23T17:28:25.737Z,62.62
2022-12-23T17:30:55.405Z,54.45
2022-12-23T17:33:26.715Z,55.97
2022-12-23T17:35:53.728Z,56.33
2022-12-23T17:38:20.587Z,57.28
2022-12-23T17:40:49.121Z,46.42
2022-12-23T17:43:18.396Z,42.88
2022-12-23T17:45:46.095Z,41.42
2022-12-23T17:48:20.576Z,41.78
2022-12-23T17:50:49.412Z,38.72
2022-12-23T17:53:18.612Z,35.58
2022-12-23T17:55:46.472Z,32.70
2022-12-23T17:58:14.472Z,43.95
2022-12-23T18:00:41.816Z,42.95
2022-12-23T18:03:23.424Z,42.90
2022-12-23T18:05:55.663Z,44.47
2022-12-23T18:08:27.900Z,99.87
2022-12-23T18:10:54.921Z,98.72
2022-12-23T18:13:21.933Z,99.72
2022-12-23T18:15:50.174Z,125.05
2022-12-23T18:18:28.983Z,103.43
2022-12-23T18:21:01.059Z,123.00
2022-12-23T18:23:31.542Z,93.47
2022-12-23T18:26:00.898Z,131.95
2022-12-23T18:28:32.148Z,152.80
2022-12-23T18:30:59.306Z,147.02
2022-12-23T18:33:28.995Z,149.45
2022-12-23T18:35:56.458Z,135.05
2022-12-23T18:38:23.414Z,131.05
2022-12-23T18:40:54.050Z,125.20
2022-12-23T18:43:24.264Z,119.13
2022-12-23T18:45:53.571Z,115.15
2022-12-23T18:48:20.617Z,93.47
2022-12-23T18:50:47.452Z,84.78
2022-12-23T18:53:23.346Z,58.55
2022-12-23T18:55:51.663Z,48.40
2022-12-23T18:58:18.994Z,51.25
2022-12-23T19:00:47.895Z,40.72
2022-12-23T19:03:23.301Z,57.35
2022-12-23T19:05:52.156Z,63.42
2022-12-23T19:08:26.261Z,73.50
2022-12-23T19:10:55.944Z,96.95
2022-12-23T19:13:23.481Z,90.38
2022-12-23T19:15:50.680Z,86.63
2022-12-23T19:18:20.427Z,65.62
2022-12-23T19:20:49.012Z,44.80
2022-12-23T19:23:16.499Z,39.72
2022-12-23T19:25:52.500Z,40.42
2022-12-23T19:28:22.519Z,37.72
2022-12-23T19:30:49.696Z,34.72
2022-12-23T19:33:17.133Z,52.13
2022-12-23T19:35:44.588Z,66.32
2022-12-23T19:38:12.648Z,91.55
2022-12-23T19:40:40.262Z,109.18
2022-12-23T19:43:07.604Z,107.60
2022-12-23T19:45:34.620Z,69.18
2022-12-23T19:48:01.554Z,56.80
2022-12-23T19:50:28.538Z,46.45
2022-12-23T19:52:56.632Z,31.58
2022-12-23T19:55:23.820Z,37.03
2022-12-23T19:57:51.874Z,40.42
2022-12-23T20:00:18.964Z,44.00
2022-12-23T20:02:45.873Z,42.17
2022-12-23T20:05:12.840Z,79.03
2022-12-23T20:07:39.764Z,53.30
2022-12-23T20:10:08.485Z,51.03
2022-12-23T20:12:35.356Z,45.78
2022-12-23T20:15:02.313Z,45.95
2022-12-23T20:17:29.224Z,44.75
2022-12-23T20:19:56.147Z,45.25
2022-12-23T20:22:23.076Z,46.97
2022-12-23T20:24:50.086Z,44.17
2022-12-23T20:27:20.137Z,49.67
2022-12-23T20:29:49.693Z,52.10
2022-12-23T20:32:16.585Z,47.85
2022-12-23T20:34:43.473Z,49.03
2022-12-23T20:37:11.926Z,46.00
2022-12-23T20:39:38.877Z,45.15
2022-12-23T20:42:05.792Z,49.85
2022-12-23T20:44:35.108Z,44.78
2022-12-23T20:47:03.409Z,42.62
2022-12-23T20:49:30.438Z,52.05
2022-12-23T20:51:57.464Z,46.17
2022-12-23T20:54:31.675Z,45.65
2022-12-23T20:57:00.265Z,49.05
2022-12-23T20:59:27.173Z,38.22
2022-12-23T21:01:54.111Z,39.40
2022-12-23T21:04:22.845Z,44.85
2022-12-23T21:06:50.264Z,31.73
2022-12-23T21:09:17.810Z,25.33
2022-12-23T21:11:46.997Z,26.73
2022-12-23T21:14:15.607Z,28.77
2022-12-23T21:16:43.021Z,23.95
2022-12-23T21:19:18.419Z,22.30
2022-12-23T21:21:46.047Z,23.17
2022-12-23T21:24:13.869Z,21.30
2022-12-23T21:26:41.095Z,23.42
2022-12-23T21:29:10.573Z,22.05
2022-12-23T21:31:39.806Z,22.75
2022-12-23T21:34:07.979Z,18.02
2022-12-23T21:36:38.051Z,19.55
2022-12-23T21:39:06.499Z,19.33
2022-12-23T21:41:39.286Z,18.80
2022-12-23T21:44:06.554Z,17.67
2022-12-23T21:46:33.859Z,21.75
2022-12-23T21:49:00.936Z,22.40
2022-12-23T21:51:38.528Z,24.35
2022-12-23T21:54:07.076Z,23.53
2022-12-23T21:56:34.260Z,24.25
2022-12-23T21:59:04.101Z,30.10
2022-12-23T22:03:58.484Z,15.98
2022-12-23T22:06:37.631Z,18.85
2022-12-23T22:09:08.298Z,13.48
2022-12-23T22:11:36.844Z,15.95
2022-12-23T22:14:05.787Z,11.02
2022-12-23T22:16:34.251Z,14.87
2022-12-23T22:19:02.064Z,17.25
2022-12-23T22:21:31.132Z,18.33
2022-12-23T22:23:59.057Z,17.17
2022-12-23T22:26:28.934Z,19.25
2022-12-23T22:31:46.231Z,13.60
2022-12-23T22:36:41.778Z,13.95
